sensor_id;sensor_type;location;lat;lon;timestamp;temperature;humidity
3005;DHT22;1512;51.486;6.610;2023-07-13T00:01:40;18.20;99.90
3005;DHT22;1512;51.486;6.610;2023-07-13T00:05:57;18.10;99.90
3005;DHT22;1512;51.486;6.610;2023-07-13T00:10:01;18.00;99.90
3005;DHT22;1512;51.486;6.610;2023-07-13T00:14:10;17.90;99.90
3005;DHT22;1512;51.486;6.610;2023-07-13T00:18:20;17.70;99.90
3005;DHT22;1512;51.486;6.610;2023-07-13T00:22:28;17.70;99.90
3005;DHT22;1512;51.486;6.610;2023-07-13T00:26:37;17.70;99.90
3005;DHT22;1512;51.486;6.610;2023-07-13T00:30:46;17.60;99.90
3005;DHT22;1512;51.486;6.610;2023-07-13T00:35:14;17.60;99.90
3005;DHT22;1512;51.486;6.610;2023-07-13T00:39:23;17.60;99.90
3005;DHT22;1512;51.486;6.610;2023-07-13T00:43:32;17.60;99.90
3005;DHT22;1512;51.486;6.610;2023-07-13T00:47:43;17.70;99.90
3005;DHT22;1512;51.486;6.610;2023-07-13T00:51:57;17.70;99.90
3005;DHT22;1512;51.486;6.610;2023-07-13T00:56:06;17.70;99.90
3005;DHT22;1512;51.486;6.610;2023-07-13T01:00:15;17.60;99.90
3005;DHT22;1512;51.486;6.610;2023-07-13T01:04:26;17.50;99.90
3005;DHT22;1512;51.486;6.610;2023-07-13T01:08:35;17.40;99.90
3005;DHT22;1512;51.486;6.610;2023-07-13T01:13:03;17.30;99.90
3005;DHT22;1512;51.486;6.610;2023-07-13T01:17:11;17.30;99.90
3005;DHT22;1512;51.486;6.610;2023-07-13T01:21:20;17.30;99.90
3005;DHT22;1512;51.486;6.610;2023-07-13T01:25:29;17.10;99.90
3005;DHT22;1512;51.486;6.610;2023-07-13T01:29:40;17.10;99.90
3005;DHT22;1512;51.486;6.610;2023-07-13T01:33:54;17.00;99.90
3005;DHT22;1512;51.486;6.610;2023-07-13T01:38:05;17.00;99.90
3005;DHT22;1512;51.486;6.610;2023-07-13T01:42:16;17.00;99.90
3005;DHT22;1512;51.486;6.610;2023-07-13T01:46:24;17.00;99.90
3005;DHT22;1512;51.486;6.610;2023-07-13T01:50:34;16.90;99.90
3005;DHT22;1512;51.486;6.610;2023-07-13T01:54:43;16.80;99.90
3005;DHT22;1512;51.486;6.610;2023-07-13T01:58:52;16.80;99.90
3005;DHT22;1512;51.486;6.610;2023-07-13T02:03:01;16.80;99.90
3005;DHT22;1512;51.486;6.610;2023-07-13T02:07:10;16.80;99.90
3005;DHT22;1512;51.486;6.610;2023-07-13T02:11:18;16.80;99.90
3005;DHT22;1512;51.486;6.610;2023-07-13T02:15:27;16.70;99.90
3005;DHT22;1512;51.486;6.610;2023-07-13T02:19:36;16.70;99.90
3005;DHT22;1512;51.486;6.610;2023-07-13T02:23:44;16.70;99.90
3005;DHT22;1512;51.486;6.610;2023-07-13T02:27:53;16.70;99.90
3005;DHT22;1512;51.486;6.610;2023-07-13T02:32:02;16.50;99.90
3005;DHT22;1512;51.486;6.610;2023-07-13T02:36:11;16.40;99.90
3005;DHT22;1512;51.486;6.610;2023-07-13T02:40:20;16.30;99.90
3005;DHT22;1512;51.486;6.610;2023-07-13T02:44:29;16.30;99.90
3005;DHT22;1512;51.486;6.610;2023-07-13T02:48:38;16.30;99.90
3005;DHT22;1512;51.486;6.610;2023-07-13T02:52:47;16.30;99.90
3005;DHT22;1512;51.486;6.610;2023-07-13T02:56:56;16.30;99.90
3005;DHT22;1512;51.486;6.610;2023-07-13T03:01:09;16.30;99.90
3005;DHT22;1512;51.486;6.610;2023-07-13T03:05:18;16.30;99.90
3005;DHT22;1512;51.486;6.610;2023-07-13T03:09:27;16.30;99.90
3005;DHT22;1512;51.486;6.610;2023-07-13T03:13:36;16.30;99.90
3005;DHT22;1512;51.486;6.610;2023-07-13T03:17:45;16.30;99.90
3005;DHT22;1512;51.486;6.610;2023-07-13T03:21:54;16.30;99.90
3005;DHT22;1512;51.486;6.610;2023-07-13T03:26:13;16.30;99.90
3005;DHT22;1512;51.486;6.610;2023-07-13T03:30:21;16.30;99.90
3005;DHT22;1512;51.486;6.610;2023-07-13T03:34:31;16.30;99.90
3005;DHT22;1512;51.486;6.610;2023-07-13T03:38:40;16.20;99.90
3005;DHT22;1512;51.486;6.610;2023-07-13T03:42:49;16.20;99.90
3005;DHT22;1512;51.486;6.610;2023-07-13T03:46:57;16.20;99.90
3005;DHT22;1512;51.486;6.610;2023-07-13T03:51:06;16.20;99.90
3005;DHT22;1512;51.486;6.610;2023-07-13T03:55:15;16.20;99.90
3005;DHT22;1512;51.486;6.610;2023-07-13T03:59:43;16.20;99.90
3005;DHT22;1512;51.486;6.610;2023-07-13T04:03:52;16.20;99.90
3005;DHT22;1512;51.486;6.610;2023-07-13T04:08:01;16.20;99.90
3005;DHT22;1512;51.486;6.610;2023-07-13T04:12:10;16.30;99.90
3005;DHT22;1512;51.486;6.610;2023-07-13T04:16:19;16.30;99.90
3005;DHT22;1512;51.486;6.610;2023-07-13T04:20:28;16.40;99.90
3005;DHT22;1512;51.486;6.610;2023-07-13T04:24:37;16.40;99.90
3005;DHT22;1512;51.486;6.610;2023-07-13T04:28:45;16.40;99.90
3005;DHT22;1512;51.486;6.610;2023-07-13T04:32:54;16.30;99.90
3005;DHT22;1512;51.486;6.610;2023-07-13T04:37:03;16.30;99.90
3005;DHT22;1512;51.486;6.610;2023-07-13T04:41:13;16.30;99.90
3005;DHT22;1512;51.486;6.610;2023-07-13T04:45:23;16.40;99.90
3005;DHT22;1512;51.486;6.610;2023-07-13T04:49:32;16.50;99.90
3005;DHT22;1512;51.486;6.610;2023-07-13T04:54:00;16.50;99.90
3005;DHT22;1512;51.486;6.610;2023-07-13T04:58:09;16.60;99.90
3005;DHT22;1512;51.486;6.610;2023-07-13T05:02:19;16.50;99.90
3005;DHT22;1512;51.486;6.610;2023-07-13T05:06:28;16.50;99.90
3005;DHT22;1512;51.486;6.610;2023-07-13T05:10:38;16.60;99.90
3005;DHT22;1512;51.486;6.610;2023-07-13T05:14:46;16.50;99.90
3005;DHT22;1512;51.486;6.610;2023-07-13T05:18:56;16.60;99.90
3005;DHT22;1512;51.486;6.610;2023-07-13T05:23:05;16.60;99.90
3005;DHT22;1512;51.486;6.610;2023-07-13T05:27:14;16.60;99.90
3005;DHT22;1512;51.486;6.610;2023-07-13T05:31:22;16.70;99.90
3005;DHT22;1512;51.486;6.610;2023-07-13T05:35:31;16.80;99.90
3005;DHT22;1512;51.486;6.610;2023-07-13T05:39:40;16.80;99.90
3005;DHT22;1512;51.486;6.610;2023-07-13T05:43:48;16.90;99.90
3005;DHT22;1512;51.486;6.610;2023-07-13T05:47:57;16.90;99.90
3005;DHT22;1512;51.486;6.610;2023-07-13T05:52:06;16.90;1.00
3005;DHT22;1512;51.486;6.610;2023-07-13T05:56:15;16.90;99.90
3005;DHT22;1512;51.486;6.610;2023-07-13T06:00:24;17.10;99.90
3005;DHT22;1512;51.486;6.610;2023-07-13T06:04:33;17.10;1.00
3005;DHT22;1512;51.486;6.610;2023-07-13T06:08:42;17.20;1.00
3005;DHT22;1512;51.486;6.610;2023-07-13T06:12:50;17.40;99.90
3005;DHT22;1512;51.486;6.610;2023-07-13T06:16:59;17.50;99.90
3005;DHT22;1512;51.486;6.610;2023-07-13T06:21:18;17.70;99.90
3005;DHT22;1512;51.486;6.610;2023-07-13T06:25:28;17.80;99.90
3005;DHT22;1512;51.486;6.610;2023-07-13T06:29:36;17.80;99.90
3005;DHT22;1512;51.486;6.610;2023-07-13T06:33:45;17.90;99.90
3005;DHT22;1512;51.486;6.610;2023-07-13T06:37:54;17.90;99.90
3005;DHT22;1512;51.486;6.610;2023-07-13T06:42:02;18.00;99.90
3005;DHT22;1512;51.486;6.610;2023-07-13T06:46:12;18.10;99.90
3005;DHT22;1512;51.486;6.610;2023-07-13T06:50:20;18.20;99.90
3005;DHT22;1512;51.486;6.610;2023-07-13T06:54:29;18.20;99.90
3005;DHT22;1512;51.486;6.610;2023-07-13T06:58:37;18.20;99.90
3005;DHT22;1512;51.486;6.610;2023-07-13T07:02:46;18.20;99.90
3005;DHT22;1512;51.486;6.610;2023-07-13T07:06:55;18.20;99.90
3005;DHT22;1512;51.486;6.610;2023-07-13T07:11:08;18.20;99.90
3005;DHT22;1512;51.486;6.610;2023-07-13T07:15:17;18.30;99.90
3005;DHT22;1512;51.486;6.610;2023-07-13T07:23:55;18.50;99.90
3005;DHT22;1512;51.486;6.610;2023-07-13T07:28:06;18.50;99.90
3005;DHT22;1512;51.486;6.610;2023-07-13T07:32:16;18.50;99.90
3005;DHT22;1512;51.486;6.610;2023-07-13T07:36:27;18.50;99.90
3005;DHT22;1512;51.486;6.610;2023-07-13T07:40:39;18.50;99.90
3005;DHT22;1512;51.486;6.610;2023-07-13T07:44:50;18.60;99.90
3005;DHT22;1512;51.486;6.610;2023-07-13T07:49:00;18.70;99.90
3005;DHT22;1512;51.486;6.610;2023-07-13T07:53:10;18.80;99.90
3005;DHT22;1512;51.486;6.610;2023-07-13T07:57:20;18.80;99.90
3005;DHT22;1512;51.486;6.610;2023-07-13T08:01:30;18.90;99.90
3005;DHT22;1512;51.486;6.610;2023-07-13T08:05:41;19.00;99.90
3005;DHT22;1512;51.486;6.610;2023-07-13T08:09:54;19.00;99.90
3005;DHT22;1512;51.486;6.610;2023-07-13T08:14:02;19.10;99.90
3005;DHT22;1512;51.486;6.610;2023-07-13T08:18:11;19.30;99.90
3005;DHT22;1512;51.486;6.610;2023-07-13T08:22:20;19.40;99.90
3005;DHT22;1512;51.486;6.610;2023-07-13T08:26:29;19.40;99.90
3005;DHT22;1512;51.486;6.610;2023-07-13T08:30:38;19.40;99.90
3005;DHT22;1512;51.486;6.610;2023-07-13T08:34:47;19.50;99.90
3005;DHT22;1512;51.486;6.610;2023-07-13T08:38:56;19.70;99.90
3005;DHT22;1512;51.486;6.610;2023-07-13T08:43:34;19.90;99.90
3005;DHT22;1512;51.486;6.610;2023-07-13T08:47:55;19.90;99.90
3005;DHT22;1512;51.486;6.610;2023-07-13T08:52:08;20.30;99.90
3005;DHT22;1512;51.486;6.610;2023-07-13T08:56:22;20.30;99.90
3005;DHT22;1512;51.486;6.610;2023-07-13T09:00:38;20.30;99.90
3005;DHT22;1512;51.486;6.610;2023-07-13T09:09:32;20.40;99.90
3005;DHT22;1512;51.486;6.610;2023-07-13T09:18:19;20.70;99.90
3005;DHT22;1512;51.486;6.610;2023-07-13T09:22:27;20.70;99.90
3005;DHT22;1512;51.486;6.610;2023-07-13T09:26:37;20.70;99.90
3005;DHT22;1512;51.486;6.610;2023-07-13T09:35:23;20.80;99.90
3005;DHT22;1512;51.486;6.610;2023-07-13T09:39:35;21.00;99.90
3005;DHT22;1512;51.486;6.610;2023-07-13T09:44:06;21.10;99.90
3005;DHT22;1512;51.486;6.610;2023-07-13T09:48:14;21.30;99.90
3005;DHT22;1512;51.486;6.610;2023-07-13T09:52:23;21.50;99.90
3005;DHT22;1512;51.486;6.610;2023-07-13T09:56:33;21.60;99.90
3005;DHT22;1512;51.486;6.610;2023-07-13T10:01:02;21.70;99.90
3005;DHT22;1512;51.486;6.610;2023-07-13T10:05:40;21.80;99.90
3005;DHT22;1512;51.486;6.610;2023-07-13T10:09:53;21.80;99.90
3005;DHT22;1512;51.486;6.610;2023-07-13T10:14:23;21.80;99.90
3005;DHT22;1512;51.486;6.610;2023-07-13T10:18:39;22.00;99.90
3005;DHT22;1512;51.486;6.610;2023-07-13T10:23:02;22.30;99.90
3005;DHT22;1512;51.486;6.610;2023-07-13T10:27:35;22.30;99.90
3005;DHT22;1512;51.486;6.610;2023-07-13T10:31:45;22.10;99.90
3005;DHT22;1512;51.486;6.610;2023-07-13T10:36:43;22.00;99.90
3005;DHT22;1512;51.486;6.610;2023-07-13T10:40:11;21.90;99.90
3005;DHT22;1512;51.486;6.610;2023-07-13T10:44:26;22.10;99.90
3005;DHT22;1512;51.486;6.610;2023-07-13T10:48:37;22.40;99.90
3005;DHT22;1512;51.486;6.610;2023-07-13T10:57:19;22.70;99.90
3005;DHT22;1512;51.486;6.610;2023-07-13T11:01:39;22.70;99.90
3005;DHT22;1512;51.486;6.610;2023-07-13T11:05:41;22.80;99.90
3005;DHT22;1512;51.486;6.610;2023-07-13T11:09:55;22.80;99.90
3005;DHT22;1512;51.486;6.610;2023-07-13T11:18:32;23.00;99.90
3005;DHT22;1512;51.486;6.610;2023-07-13T11:22:49;23.00;99.90
3005;DHT22;1512;51.486;6.610;2023-07-13T11:31:56;22.90;99.90
3005;DHT22;1512;51.486;6.610;2023-07-13T11:36:12;23.10;99.90
3005;DHT22;1512;51.486;6.610;2023-07-13T11:40:18;23.50;99.90
3005;DHT22;1512;51.486;6.610;2023-07-13T11:44:29;23.50;99.90
3005;DHT22;1512;51.486;6.610;2023-07-13T11:48:38;23.90;99.90
3005;DHT22;1512;51.486;6.610;2023-07-13T11:52:50;24.10;99.90
3005;DHT22;1512;51.486;6.610;2023-07-13T11:57:06;24.20;99.90
3005;DHT22;1512;51.486;6.610;2023-07-13T12:01:22;24.10;99.90
3005;DHT22;1512;51.486;6.610;2023-07-13T12:05:31;24.30;99.90
3005;DHT22;1512;51.486;6.610;2023-07-13T12:09:40;24.50;99.90
3005;DHT22;1512;51.486;6.610;2023-07-13T12:13:50;24.30;99.90
3005;DHT22;1512;51.486;6.610;2023-07-13T12:17:58;24.20;99.90
3005;DHT22;1512;51.486;6.610;2023-07-13T12:22:09;24.00;99.90
3005;DHT22;1512;51.486;6.610;2023-07-13T12:26:19;23.60;99.90
3005;DHT22;1512;51.486;6.610;2023-07-13T12:30:31;23.30;99.90
3005;DHT22;1512;51.486;6.610;2023-07-13T12:34:56;22.90;99.90
3005;DHT22;1512;51.486;6.610;2023-07-13T12:39:18;22.60;99.90
3005;DHT22;1512;51.486;6.610;2023-07-13T12:43:17;22.50;99.90
3005;DHT22;1512;51.486;6.610;2023-07-13T12:47:29;22.10;99.90
3005;DHT22;1512;51.486;6.610;2023-07-13T12:51:37;21.90;99.90
3005;DHT22;1512;51.486;6.610;2023-07-13T12:59:59;21.80;99.90
3005;DHT22;1512;51.486;6.610;2023-07-13T13:04:09;22.00;99.90
3005;DHT22;1512;51.486;6.610;2023-07-13T13:08:21;22.20;99.90
3005;DHT22;1512;51.486;6.610;2023-07-13T13:12:29;22.60;99.90
3005;DHT22;1512;51.486;6.610;2023-07-13T13:20:56;23.30;99.90
3005;DHT22;1512;51.486;6.610;2023-07-13T13:25:24;23.10;99.90
3005;DHT22;1512;51.486;6.610;2023-07-13T13:29:36;22.80;99.90
3005;DHT22;1512;51.486;6.610;2023-07-13T13:33:45;22.40;99.90
3005;DHT22;1512;51.486;6.610;2023-07-13T13:37:55;22.30;99.90
3005;DHT22;1512;51.486;6.610;2023-07-13T13:42:04;22.30;99.90
3005;DHT22;1512;51.486;6.610;2023-07-13T13:46:18;22.10;99.90
3005;DHT22;1512;51.486;6.610;2023-07-13T13:50:28;21.80;99.90
3005;DHT22;1512;51.486;6.610;2023-07-13T13:54:37;21.70;99.90
3005;DHT22;1512;51.486;6.610;2023-07-13T13:58:47;21.40;99.90
3005;DHT22;1512;51.486;6.610;2023-07-13T14:02:56;21.40;99.90
3005;DHT22;1512;51.486;6.610;2023-07-13T14:07:05;21.40;99.90
3005;DHT22;1512;51.486;6.610;2023-07-13T14:11:16;21.40;99.90
3005;DHT22;1512;51.486;6.610;2023-07-13T14:15:27;21.50;99.90
3005;DHT22;1512;51.486;6.610;2023-07-13T14:19:38;21.70;99.90
3005;DHT22;1512;51.486;6.610;2023-07-13T14:23:48;22.20;99.90
3005;DHT22;1512;51.486;6.610;2023-07-13T14:27:59;22.70;99.90
3005;DHT22;1512;51.486;6.610;2023-07-13T14:32:11;22.70;99.90
3005;DHT22;1512;51.486;6.610;2023-07-13T14:36:28;22.60;99.90
3005;DHT22;1512;51.486;6.610;2023-07-13T14:40:38;22.60;99.90
3005;DHT22;1512;51.486;6.610;2023-07-13T14:44:48;22.50;99.90
3005;DHT22;1512;51.486;6.610;2023-07-13T14:49:51;22.40;99.90
3005;DHT22;1512;51.486;6.610;2023-07-13T14:53:34;22.20;99.90
3005;DHT22;1512;51.486;6.610;2023-07-13T14:57:43;22.00;99.90
3005;DHT22;1512;51.486;6.610;2023-07-13T15:01:52;21.90;99.90
3005;DHT22;1512;51.486;6.610;2023-07-13T15:06:03;21.90;99.90
3005;DHT22;1512;51.486;6.610;2023-07-13T15:10:23;21.50;99.90
3005;DHT22;1512;51.486;6.610;2023-07-13T15:14:34;21.00;99.90
3005;DHT22;1512;51.486;6.610;2023-07-13T15:18:43;20.60;99.90
3005;DHT22;1512;51.486;6.610;2023-07-13T15:22:52;20.30;99.90
3005;DHT22;1512;51.486;6.610;2023-07-13T15:27:01;20.30;99.90
3005;DHT22;1512;51.486;6.610;2023-07-13T15:31:23;20.30;99.90
3005;DHT22;1512;51.486;6.610;2023-07-13T15:35:33;20.30;99.90
3005;DHT22;1512;51.486;6.610;2023-07-13T15:39:42;20.30;99.90
3005;DHT22;1512;51.486;6.610;2023-07-13T15:43:53;20.40;99.90
3005;DHT22;1512;51.486;6.610;2023-07-13T15:48:04;20.40;99.90
3005;DHT22;1512;51.486;6.610;2023-07-13T15:52:18;20.50;99.90
3005;DHT22;1512;51.486;6.610;2023-07-13T15:56:52;20.50;99.90
3005;DHT22;1512;51.486;6.610;2023-07-13T16:00:58;20.60;99.90
3005;DHT22;1512;51.486;6.610;2023-07-13T16:05:07;20.60;99.90
3005;DHT22;1512;51.486;6.610;2023-07-13T16:09:22;20.70;99.90
3005;DHT22;1512;51.486;6.610;2023-07-13T16:13:34;20.80;99.90
3005;DHT22;1512;51.486;6.610;2023-07-13T16:17:49;20.80;99.90
3005;DHT22;1512;51.486;6.610;2023-07-13T16:21:54;20.80;99.90
3005;DHT22;1512;51.486;6.610;2023-07-13T16:26:03;20.70;99.90
3005;DHT22;1512;51.486;6.610;2023-07-13T16:30:16;20.70;99.90
3005;DHT22;1512;51.486;6.610;2023-07-13T16:34:34;20.70;99.90
3005;DHT22;1512;51.486;6.610;2023-07-13T16:38:43;20.70;99.90
3005;DHT22;1512;51.486;6.610;2023-07-13T16:42:55;20.70;99.90
3005;DHT22;1512;51.486;6.610;2023-07-13T16:47:10;20.80;99.90
3005;DHT22;1512;51.486;6.610;2023-07-13T16:51:16;20.80;99.90
3005;DHT22;1512;51.486;6.610;2023-07-13T16:55:26;20.80;99.90
3005;DHT22;1512;51.486;6.610;2023-07-13T16:59:35;20.80;99.90
3005;DHT22;1512;51.486;6.610;2023-07-13T17:03:44;20.70;99.90
3005;DHT22;1512;51.486;6.610;2023-07-13T17:07:53;20.80;99.90
3005;DHT22;1512;51.486;6.610;2023-07-13T17:12:02;20.90;99.90
3005;DHT22;1512;51.486;6.610;2023-07-13T17:16:10;21.00;99.90
3005;DHT22;1512;51.486;6.610;2023-07-13T17:20:25;21.20;99.90
3005;DHT22;1512;51.486;6.610;2023-07-13T17:24:34;21.30;99.90
3005;DHT22;1512;51.486;6.610;2023-07-13T17:28:44;21.40;99.90
3005;DHT22;1512;51.486;6.610;2023-07-13T17:32:52;21.60;99.90
3005;DHT22;1512;51.486;6.610;2023-07-13T17:37:01;21.60;99.90
3005;DHT22;1512;51.486;6.610;2023-07-13T17:41:12;21.60;99.90
3005;DHT22;1512;51.486;6.610;2023-07-13T17:45:26;21.60;99.90
3005;DHT22;1512;51.486;6.610;2023-07-13T17:49:35;21.60;99.90
3005;DHT22;1512;51.486;6.610;2023-07-13T17:53:44;21.60;99.90
3005;DHT22;1512;51.486;6.610;2023-07-13T17:57:53;21.50;99.90
3005;DHT22;1512;51.486;6.610;2023-07-13T18:02:01;21.40;99.90
3005;DHT22;1512;51.486;6.610;2023-07-13T18:06:13;21.30;99.90
3005;DHT22;1512;51.486;6.610;2023-07-13T18:10:26;21.20;99.90
3005;DHT22;1512;51.486;6.610;2023-07-13T18:14:34;21.20;99.90
3005;DHT22;1512;51.486;6.610;2023-07-13T18:18:43;21.10;99.90
3005;DHT22;1512;51.486;6.610;2023-07-13T18:22:53;20.90;99.90
3005;DHT22;1512;51.486;6.610;2023-07-13T18:27:02;20.90;99.90
3005;DHT22;1512;51.486;6.610;2023-07-13T18:31:20;20.80;99.90
3005;DHT22;1512;51.486;6.610;2023-07-13T18:35:31;20.70;99.90
3005;DHT22;1512;51.486;6.610;2023-07-13T18:39:40;20.70;99.90
3005;DHT22;1512;51.486;6.610;2023-07-13T18:43:50;20.60;99.90
3005;DHT22;1512;51.486;6.610;2023-07-13T18:48:00;20.50;99.90
3005;DHT22;1512;51.486;6.610;2023-07-13T18:52:19;20.50;99.90
3005;DHT22;1512;51.486;6.610;2023-07-13T18:56:25;20.40;99.90
3005;DHT22;1512;51.486;6.610;2023-07-13T19:00:34;20.30;99.90
3005;DHT22;1512;51.486;6.610;2023-07-13T19:04:42;20.20;99.90
3005;DHT22;1512;51.486;6.610;2023-07-13T19:08:51;20.10;99.90
3005;DHT22;1512;51.486;6.610;2023-07-13T19:13:00;20.10;99.90
3005;DHT22;1512;51.486;6.610;2023-07-13T19:17:10;20.00;99.90
3005;DHT22;1512;51.486;6.610;2023-07-13T19:21:35;20.00;99.90
3005;DHT22;1512;51.486;6.610;2023-07-13T19:25:47;20.00;99.90
3005;DHT22;1512;51.486;6.610;2023-07-13T19:29:57;19.90;99.90
3005;DHT22;1512;51.486;6.610;2023-07-13T19:38:21;19.80;99.90
3005;DHT22;1512;51.486;6.610;2023-07-13T19:42:30;19.80;99.90
3005;DHT22;1512;51.486;6.610;2023-07-13T19:46:39;19.80;99.90
3005;DHT22;1512;51.486;6.610;2023-07-13T19:50:48;19.90;99.90
3005;DHT22;1512;51.486;6.610;2023-07-13T19:54:58;19.90;99.90
3005;DHT22;1512;51.486;6.610;2023-07-13T19:59:27;19.90;99.90
3005;DHT22;1512;51.486;6.610;2023-07-13T20:03:37;19.80;99.90
3005;DHT22;1512;51.486;6.610;2023-07-13T20:07:57;19.80;99.90
3005;DHT22;1512;51.486;6.610;2023-07-13T20:11:57;19.70;99.90
3005;DHT22;1512;51.486;6.610;2023-07-13T20:16:10;19.70;99.90
3005;DHT22;1512;51.486;6.610;2023-07-13T20:24:31;19.60;99.90
3005;DHT22;1512;51.486;6.610;2023-07-13T20:28:40;19.50;99.90
3005;DHT22;1512;51.486;6.610;2023-07-13T20:32:49;19.50;99.90
3005;DHT22;1512;51.486;6.610;2023-07-13T20:37:00;19.40;99.90
3005;DHT22;1512;51.486;6.610;2023-07-13T20:41:10;19.30;99.90
3005;DHT22;1512;51.486;6.610;2023-07-13T20:45:22;19.30;99.90
3005;DHT22;1512;51.486;6.610;2023-07-13T20:49:31;19.30;99.90
3005;DHT22;1512;51.486;6.610;2023-07-13T20:53:40;19.30;99.90
3005;DHT22;1512;51.486;6.610;2023-07-13T20:57:49;19.30;99.90
3005;DHT22;1512;51.486;6.610;2023-07-13T21:01:57;19.20;99.90
3005;DHT22;1512;51.486;6.610;2023-07-13T21:06:15;19.20;99.90
3005;DHT22;1512;51.486;6.610;2023-07-13T21:10:26;19.20;99.90
3005;DHT22;1512;51.486;6.610;2023-07-13T21:14:35;19.20;99.90
3005;DHT22;1512;51.486;6.610;2023-07-13T21:18:44;19.10;99.90
3005;DHT22;1512;51.486;6.610;2023-07-13T21:22:53;19.00;99.90
3005;DHT22;1512;51.486;6.610;2023-07-13T21:27:02;19.00;99.90
3005;DHT22;1512;51.486;6.610;2023-07-13T21:31:25;18.90;99.90
3005;DHT22;1512;51.486;6.610;2023-07-13T21:35:37;18.90;99.90
3005;DHT22;1512;51.486;6.610;2023-07-13T21:39:50;18.80;99.90
3005;DHT22;1512;51.486;6.610;2023-07-13T21:43:59;18.70;99.90
3005;DHT22;1512;51.486;6.610;2023-07-13T21:48:08;18.60;99.90
3005;DHT22;1512;51.486;6.610;2023-07-13T21:52:18;18.50;99.90
3005;DHT22;1512;51.486;6.610;2023-07-13T21:56:27;18.50;99.90
3005;DHT22;1512;51.486;6.610;2023-07-13T22:00:35;18.40;99.90
3005;DHT22;1512;51.486;6.610;2023-07-13T22:04:45;18.40;99.90
3005;DHT22;1512;51.486;6.610;2023-07-13T22:08:54;18.40;99.90
3005;DHT22;1512;51.486;6.610;2023-07-13T22:13:05;18.40;99.90
3005;DHT22;1512;51.486;6.610;2023-07-13T22:17:13;18.40;99.90
3005;DHT22;1512;51.486;6.610;2023-07-13T22:21:24;18.30;1.00
3005;DHT22;1512;51.486;6.610;2023-07-13T22:25:33;18.20;1.00
3005;DHT22;1512;51.486;6.610;2023-07-13T22:29:42;18.10;1.00
3005;DHT22;1512;51.486;6.610;2023-07-13T22:33:51;18.00;1.00
3005;DHT22;1512;51.486;6.610;2023-07-13T22:38:00;18.10;1.00
3005;DHT22;1512;51.486;6.610;2023-07-13T22:42:08;18.10;1.00
3005;DHT22;1512;51.486;6.610;2023-07-13T22:46:27;18.00;1.00
3005;DHT22;1512;51.486;6.610;2023-07-13T22:50:37;18.00;1.00
3005;DHT22;1512;51.486;6.610;2023-07-13T22:54:46;17.90;1.00
3005;DHT22;1512;51.486;6.610;2023-07-13T22:58:55;17.90;1.00
3005;DHT22;1512;51.486;6.610;2023-07-13T23:03:05;17.80;1.00
3005;DHT22;1512;51.486;6.610;2023-07-13T23:07:18;17.80;1.00
3005;DHT22;1512;51.486;6.610;2023-07-13T23:11:28;17.80;1.00
3005;DHT22;1512;51.486;6.610;2023-07-13T23:15:37;17.80;1.00
3005;DHT22;1512;51.486;6.610;2023-07-13T23:19:46;17.80;1.00
3005;DHT22;1512;51.486;6.610;2023-07-13T23:23:54;17.90;1.00
3005;DHT22;1512;51.486;6.610;2023-07-13T23:28:03;17.90;1.00
3005;DHT22;1512;51.486;6.610;2023-07-13T23:32:12;17.90;1.00
3005;DHT22;1512;51.486;6.610;2023-07-13T23:36:21;17.80;1.00
3005;DHT22;1512;51.486;6.610;2023-07-13T23:40:30;17.80;1.00
3005;DHT22;1512;51.486;6.610;2023-07-13T23:44:39;17.80;1.00
3005;DHT22;1512;51.486;6.610;2023-07-13T23:48:48;17.80;1.00
3005;DHT22;1512;51.486;6.610;2023-07-13T23:52:57;17.70;1.00
3005;DHT22;1512;51.486;6.610;2023-07-13T23:57:08;17.60;1.00
